Weather reports worldwide

Advertisment
Brocken, Germany (10453): temperature & dewpoint: 19.09.2018 12:00:00 - 25.09.2018 12:00:00 (CEST)Brocken, Germany (10453): temperature 5cm: 19.09.2018 12:00:00 - 25.09.2018 12:00:00 (CEST)Brocken, Germany (10453): wind speed & gusts: 19.09.2018 12:00:00 - 25.09.2018 12:00:00 (CEST)Brocken, Germany (10453): wind direction: 19.09.2018 12:00:00 - 25.09.2018 12:00:00 (CEST)Brocken, Germany (10453): visibility: 19.09.2018 12:00:00 - 25.09.2018 12:00:00 (CEST)Brocken, Germany (10453): sunshine duration: 19.09.2018 12:00:00 - 25.09.2018 12:00:00 (CEST)
Date & Time tt [°C] td [°C] tt 5cm [°C] ff [km/h] ff [kn] fx [km/h] fx [kn] dd vv [km] sd [min]
25.09.2018 12:00:00 - - - - - - - - - -
25.09.2018 11:00:00 1,2 1,0 2,9 24 13 37 20 NNW 0,1 1
25.09.2018 10:00:00 1,1 1,1 2,6 24 13 35 19 NNW 0,1 0
25.09.2018 09:00:00 0,5 0,4 1,2 26 14 39 21 NW 0,1 0
25.09.2018 08:00:00 0,0 0,0 0,1 32 18 40 22 NW - 0
25.09.2018 07:00:00 -0,2 -0,2 -0,2 30 16 41 22 NW - 0
25.09.2018 06:00:00 0,0 0,0 0,0 29 16 46 25 NW - 0
25.09.2018 05:00:00 0,1 0,1 0,1 34 18 43 23 NW - 0
25.09.2018 04:00:00 0,0 0,0 0,1 33 18 45 24 NW - 0
25.09.2018 03:00:00 -0,1 -0,1 0,0 34 19 48 26 NW - 0
25.09.2018 02:00:00 0,1 0,1 0,2 34 18 50 27 NW - 0
25.09.2018 01:00:00 0,1 0,1 0,1 38 21 61 33 NW - 0
25.09.2018 00:00:00 0,3 0,3 0,3 43 23 65 35 NW - 0
24.09.2018 23:00:00 0,2 0,2 0,2 47 26 73 39 NNW - 0
24.09.2018 22:00:00 0,7 0,7 0,7 51 27 70 38 NW - 0
24.09.2018 21:00:00 0,9 0,9 0,8 48 26 68 37 NNW - 0
24.09.2018 20:00:00 0,4 0,4 0,2 53 29 82 44 NNW - 0
24.09.2018 19:00:00 0,8 0,8 0,7 42 23 68 37 NW 0,1 0
24.09.2018 18:00:00 1,1 1,1 1,1 40 21 79 43 NW 0,1 0
24.09.2018 17:00:00 1,3 1,3 1,1 50 27 67 36 W 0,1 0
24.09.2018 16:00:00 -0,2 -0,3 -0,2 51 28 80 43 NNW 0,4 5
24.09.2018 15:00:00 1,4 1,4 2,0 51 27 69 37 W 0,2 0
24.09.2018 14:00:00 0,8 0,6 0,3 41 22 69 38 NNW 15 5
24.09.2018 13:00:00 1,8 1,6 3,6 43 23 64 35 WNW 0,2 3
24.09.2018 12:00:00 1,5 1,5 3,0 44 24 70 38 NW 0,5 1
24.09.2018 11:00:00 0,9 0,9 1,4 42 23 71 38 NW 0,2 0
24.09.2018 10:00:00 0,6 0,6 1,2 46 25 76 41 WNW 0,1 0
24.09.2018 09:00:00 0,5 0,5 0,1 45 24 71 38 WNW 0,1 0
24.09.2018 08:00:00 0,5 0,5 0,5 46 25 69 38 WNW 0,1 0
24.09.2018 07:00:00 0,3 0,3 0,0 50 27 72 39 NW - 0
24.09.2018 06:00:00 0,6 0,6 0,3 44 24 72 39 NW - 0
24.09.2018 05:00:00 0,9 0,9 1,0 47 26 75 40 WNW - 0
24.09.2018 04:00:00 1,1 1,1 1,1 52 28 78 42 WNW - 0
24.09.2018 03:00:00 1,3 1,3 1,4 46 25 83 45 NW - 0
24.09.2018 02:00:00 1,4 1,4 1,4 54 29 77 42 NW - 0
24.09.2018 01:00:00 1,6 1,6 1,7 50 27 72 39 NW - 0
24.09.2018 00:00:00 1,6 1,6 1,7 44 24 61 33 WNW - 0
23.09.2018 23:00:00 1,1 1,1 1,2 48 26 84 45 NNW - 0
23.09.2018 22:00:00 1,4 1,4 1,4 61 33 79 42 NNW - 0
23.09.2018 21:00:00 0,8 0,8 0,6 48 26 85 46 N - 0
23.09.2018 20:00:00 1,3 1,3 1,4 54 29 93 50 N - 0
23.09.2018 19:00:00 2,1 2,1 2,3 49 27 72 39 N - 0
23.09.2018 18:00:00 3,0 3,0 3,3 59 32 74 40 NNE - 0
23.09.2018 17:00:00 4,1 4,1 4,4 49 26 62 33 NNE - 0
23.09.2018 16:00:00 4,6 4,6 5,0 39 21 48 26 NE - 0
23.09.2018 15:00:00 5,0 5,0 5,6 30 16 39 21 NE - 0
23.09.2018 14:00:00 5,0 5,0 5,9 17 9 26 14 ESE - 0
23.09.2018 13:00:00 5,0 5,0 5,8 21 11 24 13 SSE - 0
23.09.2018 12:00:00 5,2 5,2 6,7 16 8 20 11 S - 0
23.09.2018 11:00:00 4,6 4,6 6,3 18 10 28 15 SSW - 0
23.09.2018 10:00:00 4,3 4,3 5,1 23 12 30 16 SSW - 0
23.09.2018 09:00:00 3,9 3,9 4,2 24 13 31 17 SSW - 0
23.09.2018 08:00:00 3,4 3,4 3,6 26 14 31 17 SSW - 0
23.09.2018 07:00:00 3,2 3,2 3,3 27 15 40 22 SW - 0
23.09.2018 06:00:00 3,1 3,1 3,3 31 17 43 23 SW - 0
23.09.2018 05:00:00 3,3 3,3 3,4 31 17 40 22 SW - 0
23.09.2018 04:00:00 3,1 3,1 3,2 29 16 47 25 WSW - 0
23.09.2018 03:00:00 2,8 2,8 3,0 37 20 57 31 WSW - 0
23.09.2018 02:00:00 3,1 3,1 3,2 42 23 63 34 W - 0
23.09.2018 01:00:00 3,0 3,0 3,1 45 25 58 31 WSW - 0
23.09.2018 00:00:00 3,3 3,3 3,4 40 22 64 35 WSW - 0
22.09.2018 23:00:00 3,3 3,3 3,4 50 27 64 35 WSW - 0
22.09.2018 22:00:00 3,6 3,6 3,7 44 24 62 34 WSW - 0
22.09.2018 21:00:00 3,5 3,4 3,3 45 24 57 31 WSW 15 0
22.09.2018 20:00:00 3,8 2,2 3,2 40 22 57 31 WSW 10 0
22.09.2018 19:00:00 5,6 1,8 4,0 50 27 66 35 WSW 50 0
22.09.2018 18:00:00 6,2 2,9 6,2 44 24 59 32 SW 70 0
22.09.2018 17:00:00 6,0 3,2 6,6 42 23 58 32 SW 80 0
22.09.2018 16:00:00 6,2 2,8 7,3 45 24 65 35 SW 70 1
22.09.2018 15:00:00 5,5 3,4 7,4 49 26 65 35 WSW 60 0
22.09.2018 14:00:00 5,1 4,1 6,6 45 24 72 39 WSW 60 6
22.09.2018 13:00:00 5,0 3,1 6,8 54 29 69 37 WSW 60 16
22.09.2018 12:00:00 4,2 3,3 5,4 51 28 74 40 WSW 30 4
22.09.2018 11:00:00 3,9 3,8 4,9 50 27 70 38 WSW 0,1 0
22.09.2018 10:00:00 3,6 3,6 4,1 53 29 85 46 W 0,1 0
22.09.2018 09:00:00 3,3 3,3 3,7 59 32 84 45 W 0,1 0
22.09.2018 08:00:00 3,4 3,4 3,6 64 34 90 49 W 0,1 0
22.09.2018 07:00:00 3,1 3,1 3,3 68 37 90 49 W 0,2 0
22.09.2018 06:00:00 3,3 3,3 3,4 61 33 96 52 W 0,2 0
22.09.2018 05:00:00 3,4 3,4 3,5 77 42 101 54 WSW 0,1 0
22.09.2018 04:00:00 3,4 3,4 3,4 82 45 102 55 WSW 0,1 0
22.09.2018 03:00:00 3,1 3,1 3,2 69 38 90 49 WSW 0,5 0
22.09.2018 02:00:00 3,2 3,2 3,3 69 37 87 47 WSW 0,5 0
22.09.2018 01:00:00 3,4 3,3 3,3 66 36 87 47 WSW 0,1 0
22.09.2018 00:00:00 3,6 2,9 2,8 71 38 93 50 WSW 45 0
21.09.2018 23:00:00 3,8 2,3 2,5 72 39 90 49 WSW 45 0
21.09.2018 22:00:00 3,8 2,7 2,9 65 35 86 46 WSW 45 0
21.09.2018 21:00:00 4,0 2,8 3,2 72 39 94 51 W 45 0
21.09.2018 20:00:00 5,2 5,1 5,3 62 33 87 47 W 0,1 0
21.09.2018 19:00:00 5,4 5,3 5,6 63 34 95 51 W - 0
21.09.2018 18:00:00 6,0 6,0 6,2 75 40 95 52 W - 0
21.09.2018 17:00:00 5,5 5,2 6,2 72 39 98 53 WSW - 0
21.09.2018 16:00:00 6,0 6,0 6,4 68 37 93 50 WSW - 0
21.09.2018 15:00:00 10,6 10,5 10,9 63 34 140 76 WSW - 0
21.09.2018 14:00:00 15,5 7,2 16,0 112 61 142 77 SW 45 25
21.09.2018 13:00:00 16,2 8,4 17,8 86 46 110 59 SSW 40 30
21.09.2018 12:00:00 15,8 10,7 17,1 74 40 112 60 SW 40 4
21.09.2018 11:00:00 14,6 10,1 15,5 67 36 90 49 SSW 45 0
21.09.2018 10:00:00 14,0 8,8 14,7 61 33 81 44 SSW 60 29
21.09.2018 09:00:00 13,9 8,5 14,3 66 36 80 43 SSW 50 43
21.09.2018 08:00:00 13,3 8,9 12,2 62 33 87 47 SSW 50 0
21.09.2018 07:00:00 14,0 9,4 12,6 74 40 94 51 SSW 40 0
21.09.2018 06:00:00 14,4 10,2 13,2 80 43 92 50 SSW 45 0
21.09.2018 05:00:00 14,3 10,6 13,3 75 41 92 50 SSW 45 0
21.09.2018 04:00:00 15,3 10,7 14,2 77 42 95 52 SW 35 0
21.09.2018 03:00:00 15,2 10,0 14,2 75 41 95 51 SW 35 0
21.09.2018 02:00:00 14,9 9,5 14,0 73 39 90 49 SW 55 0
21.09.2018 01:00:00 15,1 9,1 13,9 73 39 91 49 SSW 55 0
21.09.2018 00:00:00 15,4 8,2 13,9 68 37 82 44 SSW 55 0
20.09.2018 23:00:00 15,7 7,1 14,0 63 34 76 41 SSW 55 0
20.09.2018 22:00:00 16,0 7,4 14,0 59 32 68 37 SSW 55 0
20.09.2018 21:00:00 15,9 8,7 14,0 51 28 59 32 SSW 55 0
20.09.2018 20:00:00 16,0 7,6 14,3 50 27 62 33 SW 45 11
20.09.2018 19:00:00 16,4 7,3 15,6 51 27 63 34 SW 50 22
20.09.2018 18:00:00 16,8 7,9 16,7 44 24 59 32 SW 50 34
20.09.2018 17:00:00 16,8 7,7 17,9 51 28 69 37 SW 60 48
20.09.2018 16:00:00 17,2 7,9 20,4 50 27 68 37 SW 60 60
20.09.2018 15:00:00 16,6 8,5 20,0 53 29 68 37 SW 60 60
20.09.2018 14:00:00 15,8 8,7 19,5 51 28 71 38 SW 55 60
20.09.2018 13:00:00 15,1 9,2 19,4 50 27 66 36 SW 50 59
20.09.2018 12:00:00 14,1 10,3 17,6 51 27 62 33 SW 45 55
20.09.2018 11:00:00 13,8 10,6 15,5 49 26 61 33 SSW 45 60
20.09.2018 10:00:00 13,0 9,9 14,6 43 23 51 28 SSW 45 60
20.09.2018 09:00:00 12,1 9,1 12,0 35 19 43 23 SSW 50 30
20.09.2018 08:00:00 12,1 9,0 10,4 40 22 43 23 SSW 55 0
20.09.2018 07:00:00 12,5 9,2 10,2 37 20 40 22 WSW 60 0
20.09.2018 06:00:00 12,0 9,0 10,0 35 19 45 24 WSW 70 0
20.09.2018 05:00:00 11,6 8,8 9,7 33 18 44 24 W 70 0
20.09.2018 04:00:00 12,2 9,5 10,3 38 21 42 23 W 70 0
20.09.2018 03:00:00 12,5 9,8 10,6 34 18 39 21 W 70 0
20.09.2018 02:00:00 13,6 10,9 11,6 29 16 41 22 W 70 0
20.09.2018 01:00:00 14,8 11,1 13,1 40 22 63 34 WSW 70 0
20.09.2018 00:00:00 15,8 10,9 14,1 50 27 64 35 WSW 70 0
19.09.2018 23:00:00 16,2 10,8 14,7 50 27 63 34 SW 70 0
19.09.2018 22:00:00 17,0 10,9 15,4 52 28 65 35 SW 70 0
19.09.2018 21:00:00 17,3 10,9 16,0 57 31 71 39 SW 70 0
19.09.2018 20:00:00 17,4 10,8 15,9 54 29 74 40 SW 70 6
19.09.2018 19:00:00 17,9 10,5 16,8 59 32 75 40 SW 70 60
19.09.2018 18:00:00 18,2 10,4 18,2 50 27 76 41 SW 75 58
19.09.2018 17:00:00 18,8 10,0 20,3 56 30 77 41 SW 80 59
19.09.2018 16:00:00 19,0 9,8 21,8 50 27 73 40 SW 82 59
19.09.2018 15:00:00 17,8 9,7 21,2 59 32 79 42 SW 80 59
19.09.2018 14:00:00 17,8 9,5 22,1 53 29 69 37 SSW 70 60
19.09.2018 13:00:00 16,7 9,3 21,2 45 25 61 33 SSW 60 60
19.09.2018 12:00:00 16,2 9,6 20,2 39 21 54 29 S 55 60

tt = temperature
td = dewpoint
tt 5cm = temperature 5cm
ff = wind speed
fx = gusts
dd = wind direction
vv = visibility
sd = sunshine duration

Next stations